^^
Datos históricos de la estación: Murcia-Puente Tocinos
Diario Informe para Octubre 13, 2019 Unidades:  Métrico    Ingés   Ambas
Diario Semanal Mensual Anual
  Máxima: Mínima: Promedio:
Temperatura: 28.2 °C 20 °C 23.2 °C
Punto de rocio: 20.5 °C 16.6 °C 19 °C
Humedad: 91% 49.9% 79%
Velocidad viento: 16.1km/h 0km/h 6.3km/h
Racha viento: 30.6km/h - -
Viento- - SSE
Presión: 1016.0 hPa 1013.3 hPa -
Precipitación: 0.0 mm    
 
 
Tabla de datos para Octubre 13, 2019
Hora Temperatura Punto de rocio Presión Viento Velocidad viento Racha viento Humedad Intensidad lluvia(por hora) Nubes
00:04 22.2 °C 20.5 °C 1015.7 hPa NE 3.9 km/h 6.4 km/h 90% 0.0 mm
00:09 22.2 °C 20.5 °C 1015.7 hPa NNO 3.7 km/h 7.4 km/h 90% 0.0 mm
00:14 22.2 °C 20.4 °C 1015.7 hPa NO 2.9 km/h 8 km/h 90% 0.0 mm
00:19 22.1 °C 20.4 °C 1015.7 hPa NO 3 km/h 5.8 km/h 90% 0.0 mm
00:24 22.1 °C 20.4 °C 1015.7 hPa NO 3.2 km/h 7.4 km/h 90% 0.0 mm
00:29 22.1 °C 20.4 °C 1015.7 hPa NNO 3.2 km/h 8.4 km/h 90% 0.0 mm
00:34 22.1 °C 20.4 °C 1015.7 hPa NNO 2.9 km/h 8 km/h 90% 0.0 mm
00:39 22.1 °C 20.4 °C 1015.6 hPa NNE 3.1 km/h 9.3 km/h 90% 0.0 mm
00:44 22.1 °C 20.3 °C 1015.6 hPa NE 3.9 km/h 11.1 km/h 89.6% 0.0 mm
00:49 22.2 °C 20.3 °C 1015.6 hPa NE 4.4 km/h 11.3 km/h 89% 0.0 mm
00:54 22.2 °C 20.3 °C 1015.5 hPa NE 6.4 km/h 10 km/h 89% 0.0 mm
00:59 22.2 °C 20.3 °C 1015.5 hPa NE 6.3 km/h 9.7 km/h 89% 0.0 mm
01:04 22.2 °C 20.3 °C 1015.5 hPa NNE 5.8 km/h 9.7 km/h 89% 0.0 mm
01:09 22.1 °C 20.2 °C 1015.5 hPa NNE 5.8 km/h 9.7 km/h 89% 0.0 mm
01:14 22.1 °C 20.2 °C 1015.5 hPa NNE 5.8 km/h 9.7 km/h 89% 0.0 mm
01:19 22.1 °C 20.2 °C 1015.5 hPa NNE 5.6 km/h 9.7 km/h 89% 0.0 mm
01:24 22 °C 20.1 °C 1015.4 hPa NNE 4.7 km/h 6.4 km/h 89% 0.0 mm
01:29 21.9 °C 20 °C 1015.4 hPa NO 4.3 km/h 7.6 km/h 89% 0.0 mm
01:34 21.9 °C 20 °C 1015.4 hPa NO 2.9 km/h 8 km/h 89% 0.0 mm
01:39 21.8 °C 19.9 °C 1015.3 hPa ONO 3.1 km/h 8 km/h 89% 0.0 mm
01:44 21.8 °C 19.9 °C 1015.3 hPa ONO 3.9 km/h 8 km/h 89% 0.0 mm
01:49 21.7 °C 19.8 °C 1015.4 hPa Oeste 3.7 km/h 8 km/h 89% 0.0 mm
01:54 21.7 °C 19.8 °C 1015.4 hPa Oeste 3.2 km/h 3.9 km/h 89% 0.0 mm
01:59 21.7 °C 19.7 °C 1015.4 hPa NO 3 km/h 5.8 km/h 88.3% 0.0 mm
02:04 21.7 °C 19.6 °C 1015.4 hPa NO 2.2 km/h 6.4 km/h 88% 0.0 mm
02:09 21.7 °C 19.6 °C 1015.4 hPa NO 2.2 km/h 4.8 km/h 88% 0.0 mm
02:14 21.7 °C 19.6 °C 1015.4 hPa NO 2.2 km/h 4.8 km/h 88% 0.0 mm
02:19 21.7 °C 19.6 °C 1015.4 hPa NO 1.8 km/h   88% 0.0 mm
02:24 21.7 °C 19.6 °C 1015.4 hPa Calm     88% 0.0 mm
02:29 21.7 °C 19.6 °C 1015.4 hPa Calm     88% 0.0 mm
02:34 21.7 °C 19.6 °C 1015.4 hPa Calm     88% 0.0 mm
02:39 21.7 °C 19.7 °C 1015.3 hPa Calm     88.5% 0.0 mm
02:44 21.8 °C 19.9 °C 1015.3 hPa Calm     88.8% 0.0 mm
02:49 21.9 °C 19.9 °C 1015.3 hPa Calm     88.8% 0.0 mm
02:54 21.9 °C 20 °C 1015.2 hPa Calm     89% 0.0 mm
02:59 21.9 °C 19.9 °C 1015.2 hPa Calm     88.3% 0.0 mm
03:04 21.9 °C 19.8 °C 1015.2 hPa Calm   5.8 km/h 88% 0.0 mm
03:09 21.9 °C 19.9 °C 1015.2 hPa ESE 0.6 km/h 6.4 km/h 88.5% 0.0 mm
03:14 21.9 °C 20 °C 1015.2 hPa ESE 2.9 km/h 6.4 km/h 89% 0.0 mm
03:19 21.8 °C 19.9 °C 1015.2 hPa ESE 2.9 km/h 4.8 km/h 89% 0.0 mm
03:24 21.8 °C 19.9 °C 1015.1 hPa ESE 2.9 km/h 4.8 km/h 89% 0.0 mm
03:29 21.8 °C 19.9 °C 1015.1 hPa ESE 2.3 km/h 4.8 km/h 89% 0.0 mm
03:34 21.8 °C 19.9 °C 1015.1 hPa Calm   3.9 km/h 89% 0.0 mm
03:39 21.8 °C 19.9 °C 1014.9 hPa Calm   5 km/h 89% 0.0 mm
03:44 21.7 °C 19.8 °C 1014.9 hPa Calm   5.6 km/h 89% 0.0 mm
03:49 21.7 °C 19.8 °C 1014.9 hPa ESE 0.6 km/h 4.8 km/h 89% 0.0 mm
03:54 21.7 °C 19.8 °C 1014.7 hPa ESE 2.9 km/h 3.9 km/h 89% 0.0 mm
03:59 21.6 °C 19.7 °C 1014.7 hPa ESE 2.7 km/h 4.7 km/h 89% 0.0 mm
04:04 21.6 °C 19.7 °C 1014.7 hPa Este 2.2 km/h 7.4 km/h 89% 0.0 mm
04:09 21.4 °C 19.5 °C 1014.7 hPa NO 2.4 km/h 8 km/h 89% 0.0 mm
04:14 21.4 °C 19.5 °C 1014.7 hPa NO 3.2 km/h 8 km/h 89% 0.0 mm
04:19 21.3 °C 19.6 °C 1014.7 hPa NO 2.5 km/h   90% 0.0 mm
04:24 21.3 °C 19.6 °C 1014.4 hPa Calm     90% 0.0 mm
04:29 21.3 °C 19.6 °C 1014.4 hPa Calm   3.9 km/h 90% 0.0 mm
04:34 21.2 °C 19.5 °C 1014.4 hPa Calm   7.4 km/h 90% 0.0 mm
04:39 21.1 °C 19.4 °C 1014.4 hPa NO 0.7 km/h 8 km/h 90% 0.0 mm
04:44 21.1 °C 19.4 °C 1014.4 hPa NO 3.2 km/h 4.8 km/h 90% 0.0 mm
04:49 21.1 °C 19.4 °C 1014.4 hPa NO 3 km/h 5.6 km/h 90% 0.0 mm
04:54 21 °C 19.3 °C 1014.4 hPa NO 2.2 km/h 4.8 km/h 90% 0.0 mm
04:59 21 °C 19.3 °C 1014.4 hPa NO 1.7 km/h 3.2 km/h 90.4% 0.0 mm
05:04 20.9 °C 19.4 °C 1014.4 hPa Calm   3.9 km/h 91% 0.0 mm
05:09 20.9 °C 19.3 °C 1014.3 hPa ONO 0.5 km/h 5.6 km/h 90.7% 0.0 mm
05:14 20.8 °C 19.1 °C 1014.3 hPa ONO 2.2 km/h 5.8 km/h 90% 0.0 mm
05:19 20.8 °C 19.1 °C 1014.3 hPa ONO 2.4 km/h 6.4 km/h 90% 0.0 mm
05:24 20.7 °C 19.1 °C 1014.1 hPa ONO 3.2 km/h 5.6 km/h 90.8% 0.0 mm
05:29 20.7 °C 19.2 °C 1014.1 hPa ONO 3.2 km/h 5.6 km/h 91% 0.0 mm
05:34 20.7 °C 19.2 °C 1014.2 hPa ONO 3.2 km/h 5.6 km/h 91% 0.0 mm
05:39 20.7 °C 19.1 °C 1014.2 hPa ONO 3.1 km/h 5.6 km/h 91% 0.0 mm
05:44 20.6 °C 19.1 °C 1014.2 hPa ONO 2.9 km/h 3.2 km/h 91% 0.0 mm
05:49 20.6 °C 19.1 °C 1014.3 hPa ONO 2.3 km/h   91% 0.0 mm
05:54 20.6 °C 19.1 °C 1014.3 hPa Calm   4.7 km/h 91% 0.0 mm
05:59 20.7 °C 19.2 °C 1014.3 hPa SO 0.7 km/h 5.8 km/h 91% 0.0 mm
06:04 20.7 °C 19.2 °C 1014.3 hPa SSO 2.9 km/h 6.4 km/h 91% 0.0 mm
06:09 20.7 °C 19.2 °C 1014.2 hPa SSO 3.1 km/h 7.4 km/h 91% 0.0 mm
06:14 20.7 °C 19.2 °C 1014.2 hPa SSO 3.9 km/h 8 km/h 91% 0.0 mm
06:19 20.6 °C 19.1 °C 1014.3 hPa SSO 3.7 km/h 8 km/h 91% 0.0 mm
06:24 20.6 °C 19.1 °C 1014.3 hPa SSO 3.2 km/h 5.6 km/h 91% 0.0 mm
06:29 20.6 °C 19 °C 1014.3 hPa SSO 3.2 km/h 7.4 km/h 91% 0.0 mm
06:34 20.6 °C 19 °C 1014.3 hPa SSO 2.9 km/h 8 km/h 91% 0.0 mm
06:39 20.5 °C 19 °C 1014.3 hPa SSO 2.9 km/h 8 km/h 91% 0.0 mm
06:44 20.5 °C 19 °C 1014.3 hPa SSO 2.9 km/h 4.8 km/h 91% 0.0 mm
06:49 20.5 °C 19 °C 1014.4 hPa SSO 2.8 km/h 5.8 km/h 91% 0.0 mm
06:54 20.4 °C 18.9 °C 1014.4 hPa SSO 2.2 km/h 6.4 km/h 91% 0.0 mm
06:59 20.4 °C 18.8 °C 1014.4 hPa SO 2.5 km/h 8 km/h 90.2% 0.0 mm
07:04 20.3 °C 18.5 °C 1014.5 hPa OSO 3.2 km/h 8.7 km/h 89.3% 0.0 mm
07:09 20.2 °C 18.4 °C 1014.5 hPa OSO 3.4 km/h 8 km/h 89% 0.0 mm
07:14 20.2 °C 18.3 °C 1014.5 hPa OSO 3.9 km/h 8 km/h 89% 0.0 mm
07:19 20.3 °C 18.4 °C 1014.6 hPa OSO 3.9 km/h 8 km/h 89% 0.0 mm
07:24 20.2 °C 18.2 °C 1014.6 hPa SO 3.9 km/h 9.5 km/h 88.3% 0.0 mm
07:29 20.2 °C 18.2 °C 1014.6 hPa SO 4.3 km/h 10 km/h 88% 0.0 mm
07:34 20.2 °C 18.1 °C 1014.7 hPa SO 5.8 km/h 9.7 km/h 87.8% 0.0 mm
07:39 20.1 °C 17.9 °C 1014.7 hPa SO 5.6 km/h 9.7 km/h 87% 0.0 mm
07:44 20.1 °C 17.9 °C 1014.7 hPa SO 5 km/h 9.3 km/h 87% 0.0 mm
07:49 20.1 °C 17.9 °C 1014.7 hPa SO 5 km/h 9.7 km/h 87% 0.0 mm
07:54 20.1 °C 17.9 °C 1014.7 hPa SO 5 km/h 8 km/h 87% 0.0 mm
07:59 20.1 °C 17.9 °C 1014.7 hPa SO 5 km/h 8.4 km/h 87% 0.0 mm
08:04 20.1 °C 17.8 °C 1014.7 hPa SO 5 km/h 8 km/h 87% 0.0 mm
08:09 20 °C 17.7 °C 1014.7 hPa OSO 5 km/h 8 km/h 86.3% 0.0 mm
08:14 20 °C 17.6 °C 1014.7 hPa OSO 5 km/h 8 km/h 86% 0.0 mm
08:19 20 °C 17.6 °C 1014.9 hPa SO 4.9 km/h 8 km/h 86% 0.0 mm
08:24 20.1 °C 17.6 °C 1014.9 hPa SO 4.7 km/h 8.4 km/h 86% 0.0 mm
08:29 20.1 °C 17.7 °C 1014.9 hPa SO 4.7 km/h 9.5 km/h 86% 0.0 mm
08:34 20.1 °C 17.7 °C 1014.9 hPa OSO 5 km/h 9.7 km/h 86% 0.0 mm
08:39 20.2 °C 17.8 °C 1014.9 hPa OSO 5 km/h 8 km/h 86% 0.0 mm
08:44 20.2 °C 17.8 °C 1014.9 hPa OSO 5 km/h 8 km/h 86% 0.0 mm
08:49 20.2 °C 17.8 °C 1015.0 hPa OSO 4.6 km/h 6.4 km/h 86% 0.0 mm
08:54 20.2 °C 17.7 °C 1015.0 hPa OSO 3.2 km/h 6.4 km/h 86% 0.0 mm
08:59 20.2 °C 17.7 °C 1015.0 hPa OSO 3.4 km/h 8.4 km/h 86% 0.0 mm
09:04 20.2 °C 17.8 °C 1015.2 hPa OSO 3.9 km/h 9.5 km/h 86% 0.0 mm
09:09 20.2 °C 17.8 °C 1015.2 hPa OSO 4.1 km/h 9.7 km/h 86% 0.0 mm
09:14 20.2 °C 17.8 °C 1015.2 hPa SO 5 km/h 8 km/h 86% 0.0 mm
09:19 20.3 °C 18 °C 1015.3 hPa SO 4.6 km/h 8 km/h 86.7% 0.0 mm
09:24 20.5 °C 18.3 °C 1015.3 hPa SSO 3.2 km/h 4.7 km/h 86.9% 0.0 mm
09:29 20.8 °C 18.4 °C 1015.3 hPa SSO 3 km/h 6.4 km/h 85.6% 0.0 mm
09:34 21.1 °C 18.4 °C 1015.3 hPa Sur 2.2 km/h 8 km/h 84.2% 0.0 mm
09:39 21.3 °C 18.4 °C 1015.3 hPa Sur 2.4 km/h 6.4 km/h 83.5% 0.0 mm
09:44 21.4 °C 18.4 °C 1015.3 hPa Sur 2.9 km/h 7.4 km/h 83% 0.0 mm
09:49 21.6 °C 18.4 °C 1015.4 hPa SSO 3 km/h 8 km/h 82.2% 0.0 mm
09:54 21.5 °C 18.3 °C 1015.4 hPa SSO 3.2 km/h 8 km/h 82% 0.0 mm
09:59 21.4 °C 18.2 °C 1015.4 hPa SSO 3.7 km/h 9.5 km/h 82% 0.0 mm
10:04 21.4 °C 18.3 °C 1015.5 hPa SSO 5 km/h 11.1 km/h 82.5% 0.0 mm
10:09 21.5 °C 18.3 °C 1015.5 hPa SO 5.2 km/h 11.9 km/h 82% 0.0 mm
10:14 21.6 °C 18.3 °C 1015.5 hPa OSO 5.8 km/h 11.9 km/h 81.8% 0.0 mm
10:19 21.5 °C 18.3 °C 1015.6 hPa SO 6.2 km/h 13 km/h 81.8% 0.0 mm
10:24 21.6 °C 18.3 °C 1015.6 hPa OSO 7.6 km/h 13 km/h 81.9% 0.0 mm
10:29 21.6 °C 18.4 °C 1015.6 hPa SO 7.6 km/h 12.9 km/h 81.8% 0.0 mm
10:34 21.7 °C 18.5 °C 1015.8 hPa SO 7.6 km/h 11.3 km/h 82% 0.0 mm
10:39 21.8 °C 18.4 °C 1015.8 hPa Oeste 7.1 km/h 10.3 km/h 81.1% 0.0 mm
10:44 21.9 °C 18.5 °C 1015.8 hPa OSO 5 km/h 11.3 km/h 81% 0.0 mm
10:49 22 °C 18.6 °C 1015.8 hPa Oeste 5 km/h 11.3 km/h 80.9% 0.0 mm
10:54 22.2 °C 18.6 °C 1015.8 hPa OSO 5 km/h 10 km/h 80% 0.0 mm
10:59 22.3 °C 18.6 °C 1015.8 hPa OSO 5 km/h 10 km/h 79.5% 0.0 mm
11:04 22.4 °C 18.6 °C 1015.9 hPa SSO 5 km/h 9.7 km/h 79% 0.0 mm
11:09 22.7 °C 18.7 °C 1015.9 hPa SSO 5 km/h 9.5 km/h 78.5% 0.0 mm
11:14 22.8 °C 18.7 °C 1015.9 hPa SSO 5 km/h 9.7 km/h 77.8% 0.0 mm
11:19 22.9 °C 18.7 °C 1016.0 hPa SSO 5.2 km/h 10.3 km/h 77.1% 0.0 mm
11:24 23 °C 18.7 °C 1016.0 hPa SSO 5.8 km/h 11.1 km/h 77% 0.0 mm
11:29 23.1 °C 18.7 °C 1016.0 hPa SO 6.2 km/h 13 km/h 76.4% 0.0 mm
11:34 23.1 °C 18.7 °C 1016.0 hPa SO 7.6 km/h 12.9 km/h 76.3% 0.0 mm
11:39 23.2 °C 18.8 °C 1016.0 hPa Sur 7.1 km/h 9.7 km/h 76% 0.0 mm
11:44 23.6 °C 18.9 °C 1016.0 hPa Sur 5 km/h 8.7 km/h 75.1% 0.0 mm
11:49 23.8 °C 18.7 °C 1016.0 hPa SO 5 km/h 11.9 km/h 73.2% 0.0 mm
11:54 23.9 °C 18.8 °C 1015.9 hPa ONO 5 km/h 11.3 km/h 72.9% 0.0 mm
11:59 24.2 °C 18.8 °C 1015.9 hPa SSO 4.5 km/h 8 km/h 72.2% 0.0 mm
12:04 24.5 °C 18.8 °C 1015.9 hPa Sur 3.2 km/h 8 km/h 70.5% 0.0 mm
12:09 24.8 °C 18.8 °C 1015.9 hPa SE 3.2 km/h 8 km/h 69.5% 0.0 mm
12:14 25.1 °C 18.7 °C 1015.9 hPa Oeste 2.9 km/h 8.4 km/h 67.7% 0.0 mm
12:19 25.2 °C 18.6 °C 1015.9 hPa Oeste 3.1 km/h 8 km/h 67% 0.0 mm
12:24 25.1 °C 18.5 °C 1015.8 hPa ONO 3.9 km/h 8 km/h 67% 0.0 mm
12:29 25.1 °C 18.6 °C 1015.8 hPa North 3.7 km/h 9.5 km/h 67.5% 0.0 mm
12:34 25.3 °C 18.7 °C 1015.8 hPa North 3.2 km/h 9.7 km/h 67% 0.0 mm
12:39 25.3 °C 18.6 °C 1015.7 hPa NNO 3.6 km/h 9.7 km/h 66.3% 0.0 mm
12:44 25.3 °C 18.5 °C 1015.7 hPa ONO 5 km/h 11.1 km/h 66% 0.0 mm
12:49 25.3 °C 18.4 °C 1015.7 hPa NE 5 km/h 11.3 km/h 65.6% 0.0 mm
12:54 25.6 °C 18.4 °C 1015.5 hPa ESE 5 km/h 8 km/h 64.8% 0.0 mm
12:59 25.7 °C 18.4 °C 1015.5 hPa NNO 4.7 km/h 8 km/h 64% 0.0 mm
13:04 25.8 °C 18.4 °C 1015.5 hPa North 3.9 km/h 11.9 km/h 63.9% 0.0 mm
13:09 25.9 °C 18.5 °C 1015.4 hPa ENE 4.1 km/h 11.3 km/h 64% 0.0 mm
13:14 26.2 °C 18.6 °C 1015.4 hPa NNE 5 km/h 13.7 km/h 63.3% 0.0 mm
13:19 26.2 °C 18.5 °C 1015.4 hPa NE 5.1 km/h 14.5 km/h 62.5% 0.0 mm
13:24 26.1 °C 18.3 °C 1015.3 hPa ENE 5.8 km/h 13.7 km/h 62.3% 0.0 mm
13:29 26.2 °C 18.6 °C 1015.3 hPa NE 6 km/h 14.5 km/h 63% 0.0 mm
13:34 26.3 °C 18.4 °C 1015.3 hPa NE 6.9 km/h 16.7 km/h 62.2% 0.0 mm
13:39 26.3 °C 18.2 °C 1015.0 hPa NNE 7.1 km/h 16.1 km/h 61.1% 0.0 mm
13:44 26.4 °C 18.3 °C 1015.0 hPa NE 7.6 km/h 11.3 km/h 61% 0.0 mm
13:49 26.7 °C 18.2 °C 1015.0 hPa NE 7.6 km/h 15.6 km/h 60% 0.0 mm
13:54 26.7 °C 18.2 °C 1014.8 hPa ENE 7.6 km/h 16.1 km/h 59.5% 0.0 mm
13:59 26.8 °C 18.3 °C 1014.8 hPa NE 7.6 km/h 14.8 km/h 59.5% 0.0 mm
14:04 27.1 °C 18.3 °C 1014.8 hPa ENE 7.6 km/h 14.5 km/h 58.8% 0.0 mm
14:09 27.1 °C 18.3 °C 1014.6 hPa NNE 7.4 km/h 14.5 km/h 59% 0.0 mm
14:14 27.2 °C 18.2 °C 1014.6 hPa ENE 6.9 km/h 15.6 km/h 58.2% 0.0 mm
14:19 27.4 °C 17.4 °C 1014.6 hPa ESE 7 km/h 16.7 km/h 54.4% 0.0 mm
14:24 27.4 °C 17 °C 1014.4 hPa ENE 7.6 km/h 16.7 km/h 53% 0.0 mm
14:29 27.6 °C 17.1 °C 1014.4 hPa ENE 7.7 km/h 16.1 km/h 52.8% 0.0 mm
14:34 27.8 °C 17 °C 1014.4 hPa ESE 8.4 km/h 18.5 km/h 51.7% 0.0 mm
14:39 27.9 °C 16.8 °C 1014.2 hPa ESE 8.4 km/h 19.3 km/h 51.1% 0.0 mm
14:44 28 °C 16.8 °C 1014.2 hPa SE 8.7 km/h 18 km/h 50.8% 0.0 mm
14:49 27.9 °C 16.6 °C 1014.2 hPa ESE 9 km/h 24.1 km/h 50% 0.0 mm
14:54 28 °C 16.7 °C 1013.9 hPa ESE 10 km/h 24.1 km/h 50.4% 0.0 mm
14:59 28 °C 16.6 °C 1013.9 hPa ESE 10.5 km/h 20.9 km/h 50.1% 0.0 mm
15:04 28.1 °C 16.7 °C 1013.9 hPa SSE 11.9 km/h 21.7 km/h 50% 0.0 mm
15:09 28.1 °C 16.7 °C 1013.8 hPa Este 11.6 km/h 22.5 km/h 50% 0.0 mm
15:14 28.2 °C 16.7 °C 1013.8 hPa ESE 10.3 km/h 22.5 km/h 49.9% 0.0 mm
15:19 28 °C 16.6 °C 1013.8 hPa Este 10.7 km/h 22.5 km/h 50% 0.0 mm
15:24 28 °C 16.8 °C 1013.6 hPa ESE 12.2 km/h 20.9 km/h 50.8% 0.0 mm
15:29 28.2 °C 17 °C 1013.6 hPa SE 12.2 km/h 22.2 km/h 51% 0.0 mm
15:34 28.2 °C 17.1 °C 1013.6 hPa ESE 11.9 km/h 22.5 km/h 50.8% 0.0 mm
15:39 28.2 °C 17.4 °C 1013.5 hPa Este 11.4 km/h 17.2 km/h 52.1% 0.0 mm
15:44 28.1 °C 17.5 °C 1013.5 hPa ESE 9.5 km/h 22.2 km/h 52.5% 0.0 mm
15:49 28 °C 17.3 °C 1013.5 hPa ESE 10 km/h 22.5 km/h 52.4% 0.0 mm
15:54 28 °C 17.6 °C 1013.4 hPa ESE 12.2 km/h 16.1 km/h 53% 0.0 mm
15:59 28.1 °C 17.8 °C 1013.4 hPa ESE 11.3 km/h 18.5 km/h 53.5% 0.0 mm
16:04 27.9 °C 17.7 °C 1013.4 hPa ESE 8.7 km/h 19.3 km/h 53.9% 0.0 mm
16:09 28.1 °C 17.8 °C 1013.3 hPa ESE 9.4 km/h 20.4 km/h 53.8% 0.0 mm
16:14 27.9 °C 17.8 °C 1013.3 hPa ESE 12.2 km/h 20.9 km/h 54.5% 0.0 mm
16:19 28 °C 18.1 °C 1013.3 hPa ESE 11.8 km/h 19.3 km/h 54.8% 0.0 mm
16:24 28.1 °C 18 °C 1013.3 hPa SE 10.3 km/h 19.8 km/h 54.3% 0.0 mm
16:29 28.2 °C 18.1 °C 1013.3 hPa ESE 10.6 km/h 20.9 km/h 54.3% 0.0 mm
16:34 28.2 °C 18.2 °C 1013.4 hPa SE 11.9 km/h 21.7 km/h 54.6% 0.0 mm
16:39 28.2 °C 18.1 °C 1013.4 hPa SE 12.2 km/h 23.3 km/h 54.5% 0.0 mm
16:44 28 °C 18.3 °C 1013.4 hPa SE 13.7 km/h 24.1 km/h 55.5% 0.0 mm
16:49 28 °C 18.5 °C 1013.4 hPa ESE 13.5 km/h 24.5 km/h 56.3% 0.0 mm
16:54 27.8 °C 18.7 °C 1013.4 hPa ESE 13 km/h 29.1 km/h 57.6% 0.0 mm
16:59 27.7 °C 18.8 °C 1013.4 hPa ESE 13.7 km/h 29 km/h 58.5% 0.0 mm
17:04 27.7 °C 19 °C 1013.4 hPa ESE 15.6 km/h 24.1 km/h 59.2% 0.0 mm
17:09 27.6 °C 19.1 °C 1013.4 hPa SE 15.3 km/h 24.5 km/h 60% 0.0 mm
17:14 27.4 °C 19.1 °C 1013.4 hPa ESE 14 km/h 26.2 km/h 60.5% 0.0 mm
17:19 27.3 °C 19.2 °C 1013.5 hPa ESE 14.5 km/h 27.8 km/h 61.5% 0.0 mm
17:24 27.1 °C 19.3 °C 1013.5 hPa ESE 16.1 km/h 27.8 km/h 62.5% 0.0 mm
17:29 27 °C 19.3 °C 1013.5 hPa ESE 16.1 km/h 25.7 km/h 63% 0.0 mm
17:34 26.9 °C 19.5 °C 1013.6 hPa ESE 16.1 km/h 25.9 km/h 63.7% 0.0 mm
17:39 26.8 °C 19.5 °C 1013.6 hPa ESE 16 km/h 25.7 km/h 64.2% 0.0 mm
17:44 26.8 °C 19.6 °C 1013.6 hPa ESE 15.6 km/h 29.6 km/h 65% 0.0 mm
17:49 26.8 °C 19.6 °C 1013.6 hPa ESE 15.3 km/h 29 km/h 65% 0.0 mm
17:54 26.8 °C 19.7 °C 1013.6 hPa ESE 14 km/h 24.1 km/h 65.1% 0.0 mm
17:59 26.7 °C 19.8 °C 1013.6 hPa ESE 14 km/h 24.1 km/h 66% 0.0 mm
18:04 26.5 °C 19.8 °C 1013.7 hPa ESE 14 km/h 24.1 km/h 66.8% 0.0 mm
18:09 26.3 °C 19.9 °C 1013.7 hPa ESE 14.2 km/h 24.1 km/h 67.6% 0.0 mm
18:14 26.3 °C 19.9 °C 1013.7 hPa ESE 14.8 km/h 24.1 km/h 68% 0.0 mm
18:19 26.2 °C 19.8 °C 1013.7 hPa ESE 14.4 km/h 24.1 km/h 68% 0.0 mm
18:24 26.1 °C 19.9 °C 1013.6 hPa ESE 13 km/h 27.8 km/h 68.9% 0.0 mm
18:29 25.9 °C 19.9 °C 1013.6 hPa ESE 13.4 km/h 27.4 km/h 69.4% 0.0 mm
18:34 25.8 °C 19.9 °C 1013.8 hPa ESE 14.8 km/h 24.1 km/h 70% 0.0 mm
18:39 25.7 °C 19.9 °C 1013.8 hPa ESE 13.9 km/h 24.1 km/h 70% 0.0 mm
18:44 25.7 °C 19.8 °C 1013.8 hPa ESE 10.3 km/h 30.6 km/h 70.2% 0.0 mm
18:49 25.4 °C 19.8 °C 1013.8 hPa ESE 11 km/h 30.6 km/h 71% 0.0 mm
18:54 25.3 °C 19.9 °C 1013.8 hPa ESE 13.7 km/h 22.5 km/h 72% 0.0 mm
18:59 25.2 °C 19.8 °C 1013.8 hPa ESE 13 km/h 22.5 km/h 72% 0.0 mm
19:04 25.2 °C 19.9 °C 1013.8 hPa ESE 11.1 km/h 19.3 km/h 72.7% 0.0 mm
19:09 25.1 °C 19.9 °C 1013.8 hPa ESE 11.3 km/h 22.5 km/h 73% 0.0 mm
19:14 24.9 °C 19.8 °C 1013.8 hPa ESE 12.2 km/h 22.5 km/h 73.2% 0.0 mm
19:19 24.8 °C 19.9 °C 1013.8 hPa ESE 12 km/h 20.9 km/h 74% 0.0 mm
19:24 24.7 °C 19.8 °C 1013.8 hPa Este 11.1 km/h 19.3 km/h 74.1% 0.0 mm
19:29 24.7 °C 19.9 °C 1013.8 hPa Este 10.9 km/h 19.3 km/h 75% 0.0 mm
19:34 24.6 °C 19.9 °C 1013.8 hPa ENE 10 km/h 19.3 km/h 75% 0.0 mm
19:39 24.5 °C 19.8 °C 1013.7 hPa NE 9 km/h 11.3 km/h 75% 0.0 mm
19:44 24.4 °C 19.8 °C 1013.7 hPa NE 5.8 km/h 13 km/h 75.5% 0.0 mm
19:49 24.3 °C 19.8 °C 1013.8 hPa NE 6.2 km/h 13 km/h 76% 0.0 mm
19:54 24.3 °C 19.8 °C 1013.8 hPa NE 7.6 km/h 12.9 km/h 76% 0.0 mm
19:59 24.2 °C 19.7 °C 1013.8 hPa NE 7 km/h 9.7 km/h 76% 0.0 mm
20:04 24.1 °C 19.8 °C 1014.1 hPa NE 5 km/h 8.4 km/h 76.8% 0.0 mm
20:09 24 °C 19.8 °C 1014.1 hPa NE 5.2 km/h 11.1 km/h 77.2% 0.0 mm
20:14 23.8 °C 19.8 °C 1014.1 hPa NE 5.8 km/h 13.7 km/h 78.2% 0.0 mm
20:19 23.6 °C 19.8 °C 1014.2 hPa NE 6.3 km/h 14.5 km/h 79.4% 0.0 mm
20:24 23.4 °C 19.8 °C 1014.2 hPa NE 8.4 km/h 14.8 km/h 80% 0.0 mm
20:29 23.3 °C 19.9 °C 1014.2 hPa NE 8.4 km/h 14.5 km/h 80.9% 0.0 mm
20:34 23.3 °C 19.9 °C 1014.3 hPa NE 8.4 km/h 11.3 km/h 81% 0.0 mm
20:39 23.2 °C 19.8 °C 1014.3 hPa NE 8.4 km/h 16.7 km/h 81% 0.0 mm
20:44 23.1 °C 19.8 °C 1014.3 hPa NE 8.7 km/h 16.1 km/h 81.9% 0.0 mm
20:49 22.9 °C 19.7 °C 1014.3 hPa NE 8.9 km/h 14.8 km/h 82.1% 0.0 mm
20:54 22.8 °C 19.8 °C 1014.3 hPa NNE 9.5 km/h 14.5 km/h 83% 0.0 mm
20:59 22.7 °C 19.7 °C 1014.3 hPa NNE 9.2 km/h 13.7 km/h 83% 0.0 mm
21:04 22.7 °C 19.8 °C 1014.4 hPa NNE 8.4 km/h 14.5 km/h 83.7% 0.0 mm
21:09 22.6 °C 19.8 °C 1014.4 hPa NNE 8.4 km/h 14.8 km/h 84% 0.0 mm
21:14 22.4 °C 19.7 °C 1014.4 hPa NNE 8.4 km/h 14.5 km/h 84.4% 0.0 mm
21:19 22.4 °C 19.8 °C 1014.4 hPa NNE 8.4 km/h 14.8 km/h 85% 0.0 mm
21:24 22.3 °C 19.7 °C 1014.4 hPa NNE 8.4 km/h 14.5 km/h 85% 0.0 mm
21:29 22.3 °C 19.8 °C 1014.4 hPa NNE 8.2 km/h 13 km/h 85.6% 0.0 mm
21:34 22.2 °C 19.7 °C 1014.4 hPa NNE 7.6 km/h 13 km/h 86% 0.0 mm
21:39 22.2 °C 19.7 °C 1014.4 hPa NE 7.8 km/h 13.7 km/h 86.2% 0.0 mm
21:44 22.1 °C 19.8 °C 1014.4 hPa NE 8.7 km/h 14.5 km/h 87% 0.0 mm
21:49 22.1 °C 19.8 °C 1014.4 hPa NNE 8.6 km/h 14.8 km/h 87% 0.0 mm
21:54 22 °C 19.7 °C 1014.3 hPa NE 8.4 km/h 14.5 km/h 87.2% 0.0 mm
21:59 21.9 °C 19.8 °C 1014.3 hPa NE 8 km/h 12.9 km/h 88% 0.0 mm
22:04 21.9 °C 19.8 °C 1014.4 hPa NE 6.9 km/h 11.1 km/h 88% 0.0 mm
22:09 21.9 °C 19.8 °C 1014.4 hPa NE 6.9 km/h 11.3 km/h 88% 0.0 mm
22:14 21.8 °C 19.8 °C 1014.4 hPa NE 6.9 km/h 11.3 km/h 88% 0.0 mm
22:19 21.8 °C 19.8 °C 1014.4 hPa NE 7.1 km/h 13.7 km/h 88.5% 0.0 mm
22:24 21.8 °C 19.9 °C 1014.3 hPa NE 7.6 km/h 14.5 km/h 89% 0.0 mm
22:29 21.8 °C 19.9 °C 1014.3 hPa NE 7.7 km/h 13.7 km/h 89% 0.0 mm
22:34 21.7 °C 19.8 °C 1014.4 hPa NE 8.4 km/h 14.5 km/h 89% 0.0 mm
22:39 21.6 °C 19.7 °C 1014.4 hPa NE 8.2 km/h 11.9 km/h 89% 0.0 mm
22:44 21.4 °C 19.5 °C 1014.4 hPa NE 7.6 km/h 12.2 km/h 89% 0.0 mm
22:49 21.4 °C 19.6 °C 1014.4 hPa NE 7.4 km/h 13 km/h 89.5% 0.0 mm
22:54 21.3 °C 19.6 °C 1014.4 hPa NE 6.9 km/h 14.8 km/h 90% 0.0 mm
22:59 21.3 °C 19.6 °C 1014.4 hPa NE 7.3 km/h 14.5 km/h 90% 0.0 mm
23:04 21.3 °C 19.6 °C 1014.4 hPa NE 8.4 km/h 12.9 km/h 90% 0.0 mm
23:09 21.3 °C 19.6 °C 1014.4 hPa NE 8.2 km/h 11.3 km/h 90% 0.0 mm
23:14 21.3 °C 19.6 °C 1014.4 hPa NE 7.6 km/h 11.3 km/h 90% 0.0 mm
23:19 21.3 °C 19.6 °C 1014.6 hPa NE 7.3 km/h 11.3 km/h 90% 0.0 mm
23:24 21.3 °C 19.6 °C 1014.6 hPa NE 6.5 km/h 11.3 km/h 90% 0.0 mm
23:29 21.3 °C 19.6 °C 1014.6 hPa ENE 6.2 km/h 8.4 km/h 90% 0.0 mm
23:34 21.3 °C 19.6 °C 1014.6 hPa NE 5 km/h 8 km/h 90% 0.0 mm
23:39 21.3 °C 19.6 °C 1014.5 hPa NE 5 km/h 8 km/h 90% 0.0 mm
23:44 21.3 °C 19.6 °C 1014.5 hPa NE 5 km/h 8 km/h 90% 0.0 mm
23:49 21.2 °C 19.5 °C 1014.5 hPa NE 5 km/h 8 km/h 90% 0.0 mm
23:54 21.2 °C 19.5 °C 1014.4 hPa ENE 5 km/h 9.3 km/h 90% 0.0 mm
23:59 21.2 °C 19.5 °C 1014.4 hPa NE 5 km/h 9.7 km/h 90% 0.0 mm
Murcia-Puente Tocinos, España
Compliments of Weather Underground - 3 mb

La estación de MeteoMurcia.com, publica sus datos en los siguientes proyectos:

Weather Underground PWS IMURCIAP2 Meteoclimatic www.awekas.at

W3Counter
Web Analytics